Latest Weather Observations for Busselton Jetty

IDW60801

Issued at 8:35 am WST Thursday 23 October 2014 (issued every 30 minutes, with the page automatically refreshed every 10 minutes)

About weather observations | Map of weather stations | Latest weather observations for WA | Other Formats
Station Details ID: 009937 Name: BUSSELTON JETTY Lat: -33.63 Lon: 115.34 Height: 3.0 m
Data from the previous 72 hours. | See also: Recent months for locations in Western Australia
Date/Time
WST
Temp
°C
App
Temp
°C
Dew
Point
Rel
Hum
%
Delta-T
°C
Wind Press
QNH
hPa
Press
MSL
hPa
Rain
since 9 am
mm
Dir
 
Spd
km/h
Gust
km/h
Spd
kts
Gust
kts
23/08:30am - - - - - W 26 33 14 18 - - -
23/08:00am - - - - - W 37 48 20 26 - - -
23/07:30am - - - - - WNW 33 41 18 22 - - -
23/07:00am - - - - - WNW 30 35 16 19 - - -
23/06:30am - - - - - WNW 33 37 18 20 - - -
23/06:00am - - - - - WNW 30 33 16 18 - - -
23/05:30am - - - - - WNW 33 41 18 22 - - -
23/05:00am - - - - - NW 32 37 17 20 - - -
23/04:30am - - - - - NW 33 41 18 22 - - -
23/04:00am - - - - - NW 33 37 18 20 - - -
23/03:30am - - - - - NW 32 37 17 20 - - -
23/03:00am - - - - - NW 28 30 15 16 - - -
23/02:30am - - - - - NW 30 33 16 18 - - -
23/02:00am - - - - - NW 28 32 15 17 - - -
23/01:30am - - - - - NW 32 35 17 19 - - -
23/01:00am - - - - - NNW 20 24 11 13 - - -
23/12:30am - - - - - NW 19 24 10 13 - - -
23/12:00am - - - - - WNW 22 26 12 14 - - -
 
Date/Time
WST
Temp
°C
App
Temp
°C
Dew
Point
Rel
Hum
%
Delta-T
°C
Wind Press
QNH
hPa
Press
MSL
hPa
Rain
since 9 am
mm
Dir
 
Spd
km/h
Gust
km/h
Spd
kts
Gust
kts
22/11:30pm - - - - - WNW 26 30 14 16 - - -
22/11:00pm - - - - - WNW 28 32 15 17 - - -
22/10:30pm - - - - - WNW 32 35 17 19 - - -
22/10:00pm - - - - - WNW 33 37 18 20 - - -
22/09:30pm - - - - - NW 30 35 16 19 - - -
22/09:00pm - - - - - NW 28 32 15 17 - - -
22/08:30pm - - - - - WNW 30 33 16 18 - - -
22/08:00pm - - - - - WNW 32 37 17 20 - - -
22/07:30pm - - - - - WNW 28 35 15 19 - - -
22/07:00pm - - - - - WNW 28 32 15 17 - - -
22/06:30pm - - - - - NW 30 33 16 18 - - -
22/06:00pm - - - - - WNW 28 33 15 18 - - -
22/05:30pm - - - - - WNW 30 33 16 18 - - -
22/05:00pm - - - - - NW 32 35 17 19 - - -
22/04:30pm - - - - - NW 33 41 18 22 - - -
22/04:00pm - - - - - NW 32 39 17 21 - - -
22/03:30pm - - - - - NW 28 32 15 17 - - -
22/03:00pm - - - - - NW 32 37 17 20 - - -
22/02:42pm - - - - - NNW 33 37 18 20 - - -
22/02:30pm - - - - - N 15 17 8 9 - - -
22/02:00pm - - - - - N 17 19 9 10 - - -
22/01:30pm - - - - - N 15 15 8 8 - - -
22/01:00pm - - - - - N 15 17 8 9 - - -
22/12:30pm - - - - - ENE 15 20 8 11 - - -
22/12:00pm - - - - - ENE 20 26 11 14 - - -
22/11:30am - - - - - E 30 35 16 19 - - -
22/11:00am - - - - - E 20 26 11 14 - - -
22/10:30am - - - - - E 24 28 13 15 - - -
22/10:00am - - - - - E 22 26 12 14 - - -
22/09:30am - - - - - E 28 33 15 18 - - -
22/09:00am - - - - - ESE 19 24 10 13 - - -
22/08:30am - - - - - ESE 20 24 11 13 - - -
22/08:00am - - - - - SE 19 24 10 13 - - -
22/07:30am - - - - - SE 19 24 10 13 - - -
22/07:00am - - - - - ESE 20 30 11 16 - - -
22/06:30am - - - - - ESE 26 33 14 18 - - -
22/06:00am - - - - - SE 24 32 13 17 - - -
22/05:30am - - - - - ESE 32 35 17 19 - - -
22/05:00am - - - - - ESE 32 41 17 22 - - -
22/04:30am - - - - - ESE 33 41 18 22 - - -
22/04:00am - - - - - ESE 39 50 21 27 - - -
22/03:30am - - - - - ESE 41 50 22 27 - - -
22/03:00am - - - - - SE 35 46 19 25 - - -
22/02:30am - - - - - ESE 41 50 22 27 - - -
22/02:00am - - - - - SE 39 48 21 26 - - -
22/01:30am - - - - - SE 33 41 18 22 - - -
22/01:00am - - - - - SE 32 39 17 21 - - -
22/12:30am - - - - - SE 28 35 15 19 - - -
22/12:00am - - - - - SE 28 33 15 18 - - -
 
Date/Time
WST
Temp
°C
App
Temp
°C
Dew
Point
Rel
Hum
%
Delta-T
°C
Wind Press
QNH
hPa
Press
MSL
hPa
Rain
since 9 am
mm
Dir
 
Spd
km/h
Gust
km/h
Spd
kts
Gust
kts
21/11:30pm - - - - - SSE 22 28 12 15 - - -
21/11:00pm - - - - - SSE 28 32 15 17 - - -
21/10:30pm - - - - - S 24 28 13 15 - - -
21/10:00pm - - - - - S 22 26 12 14 - - -
21/09:30pm - - - - - S 24 30 13 16 - - -
21/09:00pm - - - - - S 22 28 12 15 - - -
21/08:30pm - - - - - S 24 30 13 16 - - -
21/08:00pm - - - - - S 22 28 12 15 - - -
21/07:30pm - - - - - S 24 30 13 16 - - -
21/07:00pm - - - - - SSW 20 26 11 14 - - -
21/06:30pm - - - - - SSW 19 19 10 10 - - -
21/06:00pm - - - - - WNW 13 15 7 8 - - -
21/05:30pm - - - - - WNW 17 17 9 9 - - -
21/05:00pm - - - - - NW 19 20 10 11 - - -
21/04:30pm - - - - - NW 20 24 11 13 - - -
21/04:00pm - - - - - NW 22 26 12 14 - - -
21/03:30pm - - - - - NW 28 32 15 17 - - -
21/03:00pm - - - - - NNW 26 30 14 16 - - -
21/02:30pm - - - - - NNW 17 19 9 10 - - -
21/02:00pm - - - - - NNW 17 19 9 10 - - -
21/01:30pm - - - - - NNW 15 17 8 9 - - -
21/01:00pm - - - - - NNW 15 17 8 9 - - -
21/12:30pm - - - - - N 17 20 9 11 - - -
21/12:00pm - - - - - N 15 17 8 9 - - -
21/11:30am - - - - - NE 11 17 6 9 - - -
21/11:00am - - - - - NNE 7 11 4 6 - - -
21/10:30am - - - - - ENE 9 13 5 7 - - -
21/10:00am - - - - - ESE 13 17 7 9 - - -
21/09:30am - - - - - SE 13 17 7 9 - - -
21/09:00am - - - - - SE 11 17 6 9 - - -
21/08:30am - - - - - SE 11 13 6 7 - - -
21/08:00am - - - - - SE 11 13 6 7 - - -
21/07:30am - - - - - SE 13 13 7 7 - - -
21/07:00am - - - - - SE 11 13 6 7 - - -
21/06:30am - - - - - SE 13 17 7 9 - - -
21/06:00am - - - - - SSE 15 17 8 9 - - -
21/05:30am - - - - - SSE 11 15 6 8 - - -
21/05:00am - - - - - SE 13 15 7 8 - - -
21/04:30am - - - - - SE 13 15 7 8 - - -
21/04:00am - - - - - SSE 13 15 7 8 - - -
21/03:30am - - - - - S 13 15 7 8 - - -
21/03:00am - - - - - S 13 15 7 8 - - -
21/02:30am - - - - - S 13 15 7 8 - - -
21/02:00am - - - - - S 11 15 6 8 - - -
21/01:30am - - - - - SSW 13 15 7 8 - - -
21/01:00am - - - - - SSW 13 15 7 8 - - -
21/12:30am - - - - - S 11 15 6 8 - - -
21/12:00am - - - - - S 13 15 7 8 - - -
 
Date/Time
WST
Temp
°C
App
Temp
°C
Dew
Point
Rel
Hum
%
Delta-T
°C
Wind Press
QNH
hPa
Press
MSL
hPa
Rain
since 9 am
mm
Dir
 
Spd
km/h
Gust
km/h
Spd
kts
Gust
kts
20/11:30pm - - - - - S 13 17 7 9 - - -
20/11:00pm - - - - - SSW 17 19 9 10 - - -
20/10:30pm - - - - - SSW 15 19 8 10 - - -
20/10:00pm - - - - - SSW 13 19 7 10 - - -
20/09:30pm - - - - - SSW 13 17 7 9 - - -
20/09:00pm - - - - - SSW 13 17 7 9 - - -
20/08:30pm - - - - - SW 17 20 9 11 - - -
20/08:00pm - - - - - SW 15 17 8 9 - - -
20/07:30pm - - - - - SW 17 20 9 11 - - -
20/07:00pm - - - - - WSW 19 22 10 12 - - -
20/06:30pm - - - - - WSW 22 26 12 14 - - -
20/06:00pm - - - - - WSW 22 30 12 16 - - -
20/05:30pm - - - - - WSW 28 32 15 17 - - -
20/05:00pm - - - - - W 28 33 15 18 - - -
20/04:30pm - - - - - WSW 28 35 15 19 - - -
20/04:00pm - - - - - W 35 41 19 22 - - -
20/03:30pm - - - - - W 35 41 19 22 - - -
20/03:00pm - - - - - W 32 44 17 24 - - -
20/02:30pm - - - - - WSW 32 37 17 20 - - -
20/02:00pm - - - - - W 35 37 19 20 - - -
20/01:30pm - - - - - W 30 33 16 18 - - -
20/01:00pm - - - - - W 24 32 13 17 - - -
20/12:30pm - - - - - WSW 28 32 15 17 - - -
20/12:00pm - - - - - W 30 37 16 20 - - -
20/11:30am - - - - - W 26 30 14 16 - - -
20/11:00am - - - - - SW 20 28 11 15 - - -
20/10:30am - - - - - W 20 24 11 13 - - -
20/10:00am - - - - - SW 24 32 13 17 - - -
20/09:30am - - - - - SSW 28 32 15 17 - - -
20/09:00am - - - - - SSW 24 33 13 18 - - -

Other Formats:

Comma delimited format used in spreadsheet applications
http://www.bom.gov.au/fwo/IDW60801/IDW60801.95602.axf

JavaScript Object Notation format (JSON) in row-major order
http://www.bom.gov.au/fwo/IDW60801/IDW60801.95602.json